Time;durP1;ratioP1;P1;durP2;ratioP2;P2;SDS_P1;SDS_P2;PMS_P1;PMS_P2;Temp;Humidity;BMP_temperature;BMP_pressure;BME280_temperature;BME280_humidity;BME280_pressure;Samples;Min_cycle;Max_cycle;Signal;HPM_P1;HPM_P2
2023/08/17 00:00:21;;;;;;;;;;;25.00;99.90;;;;;;5134762;27;19903;-71
2023/08/17 00:02:47;;;;;;;;;;;25.00;99.90;;;;;;5134153;27;19904;-71
2023/08/17 00:05:13;;;;;;;;;;;25.00;99.90;;;;;;5132689;27;19910;-71
2023/08/17 00:07:39;;;;;;;;;;;25.00;99.90;;;;;;5134547;28;19942;-72
2023/08/17 00:10:05;;;;;;;;;;;24.90;99.90;;;;;;5134366;28;19903;-71
2023/08/17 00:12:30;;;;;;;;;;;24.80;99.90;;;;;;5134078;27;19910;-71
2023/08/17 00:14:56;;;;;;;;;;;24.80;99.90;;;;;;5134574;28;20356;-71
2023/08/17 00:17:22;;;;;;;;;;;24.80;99.90;;;;;;5134488;28;19913;-73
2023/08/17 00:19:48;;;;;;;;;;;24.70;99.90;;;;;;5133981;27;19943;-70
2023/08/17 00:22:14;;;;;;;;;;;24.60;99.90;;;;;;5133837;27;19903;-71
2023/08/17 00:24:41;;;;;;;;;;;24.60;99.90;;;;;;5134577;27;19908;-71
2023/08/17 00:27:07;;;;;;;;;;;24.60;99.90;;;;;;5133969;27;19911;-71
2023/08/17 00:29:35;;;;;;;;;;;24.60;99.90;;;;;;5134404;28;19910;-71
2023/08/17 00:32:01;;;;;;;;;;;24.60;99.90;;;;;;5133955;27;19997;-71
2023/08/17 00:34:27;;;;;;;;;;;24.60;99.90;;;;;;5133881;27;19969;-71
2023/08/17 00:36:53;;;;;;;;;;;24.60;99.90;;;;;;5132594;28;20278;-71
2023/08/17 00:39:19;;;;;;;;;;;24.60;99.90;;;;;;5133839;27;19919;-71
2023/08/17 00:41:46;;;;;;;;;;;24.60;99.90;;;;;;5133917;27;19961;-70
2023/08/17 00:44:12;;;;;;;;;;;24.60;99.90;;;;;;5133944;27;19976;-71
2023/08/17 00:46:38;;;;;;;;;;;24.60;99.90;;;;;;5133744;28;20321;-72
2023/08/17 00:49:04;;;;;;;;;;;24.60;99.90;;;;;;5132251;28;20030;-70
2023/08/17 00:51:31;;;;;;;;;;;24.60;99.90;;;;;;5133576;27;19903;-69
2023/08/17 00:53:58;;;;;;;;;;;24.50;99.90;;;;;;5133651;27;19912;-71
2023/08/17 00:56:24;;;;;;;;;;;24.60;99.90;;;;;;5134180;27;20327;-70
2023/08/17 00:58:50;;;;;;;;;;;24.50;99.90;;;;;;5132377;28;19944;-70
2023/08/17 01:01:16;;;;;;;;;;;24.40;99.90;;;;;;5133898;27;19904;-70
2023/08/17 01:03:42;;;;;;;;;;;24.40;99.90;;;;;;5134189;27;20316;-70
2023/08/17 01:06:09;;;;;;;;;;;24.40;99.90;;;;;;5133781;28;19989;-70
2023/08/17 01:08:35;;;;;;;;;;;24.40;99.90;;;;;;5133627;27;20004;-70
2023/08/17 01:11:20;;;;;;;;;;;24.40;99.90;;;;;;5132359;28;19910;-71
2023/08/17 01:13:45;;;;;;;;;;;24.40;99.90;;;;;;5135105;27;19911;-70
2023/08/17 01:16:14;;;;;;;;;;;24.40;99.90;;;;;;5137460;27;19907;-70
2023/08/17 01:18:40;;;;;;;;;;;24.40;99.90;;;;;;5137260;27;19903;-70
2023/08/17 01:21:08;;;;;;;;;;;24.40;99.90;;;;;;5137114;27;20355;-70
2023/08/17 01:23:34;;;;;;;;;;;24.40;99.90;;;;;;5137056;27;19903;-71
2023/08/17 01:26:00;;;;;;;;;;;24.40;99.90;;;;;;5137354;27;19911;-71
2023/08/17 01:28:26;;;;;;;;;;;24.30;99.90;;;;;;5137007;27;19911;-71
2023/08/17 01:30:58;;;;;;;;;;;24.30;99.90;;;;;;5137028;27;19907;-69
2023/08/17 01:33:26;;;;;;;;;;;24.20;99.90;;;;;;5137234;27;19915;-70
2023/08/17 01:35:58;;;;;;;;;;;24.10;99.90;;;;;;5136736;27;19907;-71
2023/08/17 01:38:25;;;;;;;;;;;24.10;99.90;;;;;;5136644;27;20356;-70
2023/08/17 01:40:53;;;;;;;;;;;24.10;99.90;;;;;;5136799;27;19911;-70
2023/08/17 01:43:19;;;;;;;;;;;24.10;99.90;;;;;;5136718;27;19903;-71
2023/08/17 01:45:45;;;;;;;;;;;24.10;99.90;;;;;;5136751;27;20046;-71
2023/08/17 01:48:11;;;;;;;;;;;24.10;99.90;;;;;;5136582;27;19956;-71
2023/08/17 01:50:37;;;;;;;;;;;24.10;99.90;;;;;;5136680;27;19994;-71
2023/08/17 01:53:03;;;;;;;;;;;24.10;99.90;;;;;;5136599;27;19904;-71
2023/08/17 01:55:29;;;;;;;;;;;24.10;99.90;;;;;;5136777;27;19903;-70
2023/08/17 01:57:55;;;;;;;;;;;24.00;99.90;;;;;;5136466;27;19944;-70
2023/08/17 02:00:21;;;;;;;;;;;24.10;99.90;;;;;;5136398;27;19950;-71
2023/08/17 02:02:47;;;;;;;;;;;24.00;99.90;;;;;;5136506;27;19904;-70
2023/08/17 02:05:12;;;;;;;;;;;24.00;99.90;;;;;;5136251;27;20279;-69
2023/08/17 02:07:38;;;;;;;;;;;24.00;99.90;;;;;;5136686;27;19918;-71
2023/08/17 02:10:04;;;;;;;;;;;24.10;99.90;;;;;;5136238;27;20275;-71
2023/08/17 02:12:30;;;;;;;;;;;24.10;99.90;;;;;;5136195;27;19903;-70
2023/08/17 02:14:57;;;;;;;;;;;24.10;99.90;;;;;;5136493;27;19904;-71
2023/08/17 02:17:22;;;;;;;;;;;24.00;99.90;;;;;;5136391;27;19967;-71
2023/08/17 02:19:48;;;;;;;;;;;24.00;99.90;;;;;;5136136;27;19912;-70
2023/08/17 02:22:15;;;;;;;;;;;24.10;99.90;;;;;;5135984;27;19915;-70
2023/08/17 02:24:41;;;;;;;;;;;24.00;99.90;;;;;;5135870;27;19907;-71
2023/08/17 02:27:09;;;;;;;;;;;23.90;99.90;;;;;;5135345;27;19957;-70
2023/08/17 02:29:35;;;;;;;;;;;23.80;99.90;;;;;;5135900;27;19911;-70
2023/08/17 02:32:01;;;;;;;;;;;23.70;99.90;;;;;;5136059;27;19903;-70
2023/08/17 02:34:27;;;;;;;;;;;23.80;99.90;;;;;;5135652;27;20390;-70
2023/08/17 02:36:52;;;;;;;;;;;23.80;99.90;;;;;;5135990;27;19908;-70
2023/08/17 02:39:18;;;;;;;;;;;23.80;99.90;;;;;;5135494;27;19915;-72
2023/08/17 02:41:45;;;;;;;;;;;23.80;99.90;;;;;;5135695;27;19910;-71
2023/08/17 02:44:10;;;;;;;;;;;23.80;99.90;;;;;;5135656;27;19904;-71
2023/08/17 02:46:36;;;;;;;;;;;23.80;99.90;;;;;;5134244;27;19914;-71
2023/08/17 02:49:02;;;;;;;;;;;23.90;99.90;;;;;;5135595;27;19911;-72
2023/08/17 02:51:28;;;;;;;;;;;24.00;99.90;;;;;;5135334;27;19911;-72
2023/08/17 02:53:54;;;;;;;;;;;24.10;99.90;;;;;;5135454;27;19922;-72
2023/08/17 02:56:20;;;;;;;;;;;24.20;99.90;;;;;;5134159;27;19903;-71
2023/08/17 02:58:46;;;;;;;;;;;24.30;99.90;;;;;;5135337;27;20397;-70
2023/08/17 03:01:12;;;;;;;;;;;24.30;99.90;;;;;;5135642;27;19925;-71
2023/08/17 03:03:39;;;;;;;;;;;24.40;99.90;;;;;;5135255;27;19953;-71
2023/08/17 03:06:05;;;;;;;;;;;24.40;99.90;;;;;;5135189;27;20334;-71
2023/08/17 03:08:31;;;;;;;;;;;24.40;99.90;;;;;;5135092;27;19911;-71
2023/08/17 03:10:57;;;;;;;;;;;24.40;99.90;;;;;;5134990;27;19910;-69
2023/08/17 03:13:23;;;;;;;;;;;24.40;99.90;;;;;;5135379;27;19908;-71
2023/08/17 03:15:49;;;;;;;;;;;24.40;99.90;;;;;;5135063;27;19911;-72
2023/08/17 03:18:14;;;;;;;;;;;24.40;99.90;;;;;;5134982;27;20018;-71
2023/08/17 03:20:40;;;;;;;;;;;24.40;99.90;;;;;;5134695;27;19903;-72
2023/08/17 03:23:07;;;;;;;;;;;24.40;99.90;;;;;;5134881;27;19914;-71
2023/08/17 03:25:33;;;;;;;;;;;24.40;99.90;;;;;;5135353;27;20351;-71
2023/08/17 03:27:59;;;;;;;;;;;24.40;99.90;;;;;;5134763;27;19918;-72
2023/08/17 03:30:25;;;;;;;;;;;24.30;99.90;;;;;;5134857;27;20480;-71
2023/08/17 03:32:51;;;;;;;;;;;24.30;99.90;;;;;;5134774;27;19951;-71
2023/08/17 03:35:16;;;;;;;;;;;24.20;99.90;;;;;;5135011;27;19957;-72
2023/08/17 03:37:42;;;;;;;;;;;24.20;99.90;;;;;;5134911;27;20304;-72
2023/08/17 03:40:08;;;;;;;;;;;24.10;99.90;;;;;;5134471;27;19915;-72
2023/08/17 03:42:34;;;;;;;;;;;24.10;99.90;;;;;;5134845;27;19910;-71
2023/08/17 03:45:00;;;;;;;;;;;24.00;99.90;;;;;;5134557;27;19943;-72
2023/08/17 03:47:26;;;;;;;;;;;24.00;99.90;;;;;;5134345;27;20279;-71
2023/08/17 03:49:52;;;;;;;;;;;24.00;99.90;;;;;;5134725;27;19907;-71
2023/08/17 03:52:18;;;;;;;;;;;24.00;99.90;;;;;;5134946;27;19910;-72
2023/08/17 03:54:44;;;;;;;;;;;24.00;99.90;;;;;;5134612;27;19903;-71
2023/08/17 03:57:09;;;;;;;;;;;24.00;99.90;;;;;;5134844;27;19908;-73
2023/08/17 03:59:35;;;;;;;;;;;24.00;99.90;;;;;;5134341;27;20367;-72
2023/08/17 04:02:01;;;;;;;;;;;24.00;99.90;;;;;;5134322;27;19903;-71
2023/08/17 04:04:27;;;;;;;;;;;24.00;99.90;;;;;;5134842;27;20335;-72
2023/08/17 04:06:54;;;;;;;;;;;24.10;99.90;;;;;;5134017;27;19911;-71
2023/08/17 04:09:20;;;;;;;;;;;24.20;99.90;;;;;;5132889;27;19908;-71
2023/08/17 04:11:46;;;;;;;;;;;24.40;99.90;;;;;;5134150;27;19910;-71
2023/08/17 04:14:13;;;;;;;;;;;24.40;99.90;;;;;;5132766;28;19904;-72
2023/08/17 04:16:39;;;;;;;;;;;24.40;99.90;;;;;;5134512;27;20393;-72
2023/08/17 04:19:05;;;;;;;;;;;24.40;99.90;;;;;;5134381;27;19904;-72
2023/08/17 04:21:31;;;;;;;;;;;24.30;99.90;;;;;;5134029;27;19911;-71
2023/08/17 04:23:57;;;;;;;;;;;24.30;99.90;;;;;;5134516;28;20259;-71
2023/08/17 04:26:24;;;;;;;;;;;24.30;99.90;;;;;;5134233;28;19907;-71
2023/08/17 04:28:50;;;;;;;;;;;24.30;99.90;;;;;;5134355;27;20494;-70
2023/08/17 04:31:17;;;;;;;;;;;24.30;99.90;;;;;;5134053;28;19950;-70
2023/08/17 04:33:44;;;;;;;;;;;24.30;99.90;;;;;;5134653;27;19907;-71
2023/08/17 04:36:10;;;;;;;;;;;24.30;99.90;;;;;;5133968;27;19904;-71
2023/08/17 04:38:36;;;;;;;;;;;24.30;99.90;;;;;;5132335;28;19910;-71
2023/08/17 04:41:02;;;;;;;;;;;24.30;99.90;;;;;;5134226;27;19907;-70
2023/08/17 04:43:28;;;;;;;;;;;24.40;99.90;;;;;;5133874;27;19903;-70
2023/08/17 04:45:53;;;;;;;;;;;24.40;99.90;;;;;;5133847;28;19903;-70
2023/08/17 04:48:19;;;;;;;;;;;24.60;99.90;;;;;;5133836;27;19911;-71
2023/08/17 04:50:46;;;;;;;;;;;24.60;99.90;;;;;;5138005;27;19954;-71
2023/08/17 04:53:12;;;;;;;;;;;24.70;99.90;;;;;;5137972;27;19904;-71
2023/08/17 04:55:37;;;;;;;;;;;24.80;99.90;;;;;;5137773;27;19929;-70
2023/08/17 04:58:03;;;;;;;;;;;24.70;99.90;;;;;;5138181;27;19903;-70
2023/08/17 05:00:30;;;;;;;;;;;24.70;99.90;;;;;;5137733;27;19908;-71
2023/08/17 05:02:56;;;;;;;;;;;24.70;99.90;;;;;;5138143;27;19911;-71
2023/08/17 05:05:22;;;;;;;;;;;24.70;99.90;;;;;;5137558;27;19903;-71
2023/08/17 05:07:48;;;;;;;;;;;24.60;99.90;;;;;;5137368;27;19954;-71
2023/08/17 05:10:14;;;;;;;;;;;24.60;99.90;;;;;;5137936;27;19953;-71
2023/08/17 05:12:40;;;;;;;;;;;24.70;99.90;;;;;;5137431;27;19963;-71
2023/08/17 05:15:06;;;;;;;;;;;24.70;99.90;;;;;;5137365;27;20356;-70
2023/08/17 05:17:32;;;;;;;;;;;24.70;99.90;;;;;;5137553;27;20040;-70
2023/08/17 05:19:58;;;;;;;;;;;25.30;99.90;;;;;;5136603;27;19949;-71
2023/08/17 05:22:23;;;;;;;;;;;26.20;99.90;;;;;;5136813;27;20271;-72
2023/08/17 05:24:49;;;;;;;;;;;27.00;99.90;;;;;;5137145;27;19903;-72
2023/08/17 05:27:15;;;;;;;;;;;28.10;99.90;;;;;;5137057;27;20276;-73
2023/08/17 05:29:41;;;;;;;;;;;29.10;99.90;;;;;;5136693;27;19903;-72
2023/08/17 05:32:07;;;;;;;;;;;29.70;99.90;;;;;;5137224;27;19909;-71
2023/08/17 05:34:33;;;;;;;;;;;29.50;99.60;;;;;;5136484;27;19907;-71
2023/08/17 05:36:58;;;;;;;;;;;30.20;98.80;;;;;;5136483;27;20359;-70
2023/08/17 05:39:24;;;;;;;;;;;30.40;98.40;;;;;;5136487;27;19915;-69
2023/08/17 05:41:50;;;;;;;;;;;30.70;97.90;;;;;;5136423;27;20050;-69
2023/08/17 05:44:17;;;;;;;;;;;31.10;97.10;;;;;;5136625;27;20201;-69
2023/08/17 05:46:43;;;;;;;;;;;31.60;96.00;;;;;;5136139;27;19926;-71
2023/08/17 05:49:09;;;;;;;;;;;31.90;95.20;;;;;;5136145;27;20248;-70
2023/08/17 05:51:35;;;;;;;;;;;32.30;94.80;;;;;;5134663;27;19903;-71
2023/08/17 05:54:01;;;;;;;;;;;33.00;93.90;;;;;;5136247;27;19926;-71
2023/08/17 05:56:28;;;;;;;;;;;32.80;93.80;;;;;;5136756;27;19911;-71
2023/08/17 05:58:54;;;;;;;;;;;33.00;93.40;;;;;;5136134;27;19956;-71
2023/08/17 06:01:20;;;;;;;;;;;32.50;93.70;;;;;;5136289;27;19903;-71
2023/08/17 06:03:46;;;;;;;;;;;32.20;93.60;;;;;;5136351;27;19911;-72
2023/08/17 06:06:11;;;;;;;;;;;32.50;93.40;;;;;;5134443;27;19903;-71
2023/08/17 06:08:38;;;;;;;;;;;32.00;93.60;;;;;;5136262;27;20022;-71
2023/08/17 06:11:04;;;;;;;;;;;32.00;93.80;;;;;;5135764;27;19910;-72
2023/08/17 06:13:29;;;;;;;;;;;32.80;93.30;;;;;;5135770;27;19903;-71
2023/08/17 06:15:58;;;;;;;;;;;33.70;92.50;;;;;;5135899;27;20354;-71
2023/08/17 06:18:24;;;;;;;;;;;34.60;91.60;;;;;;5136433;27;20335;-71
2023/08/17 06:20:53;;;;;;;;;;;34.90;91.00;;;;;;5135470;27;19903;-71
2023/08/17 06:23:20;;;;;;;;;;;34.80;90.80;;;;;;5136109;27;20349;-71
2023/08/17 06:25:45;;;;;;;;;;;35.20;90.80;;;;;;5135666;27;19948;-71
2023/08/17 06:28:11;;;;;;;;;;;34.00;90.60;;;;;;5135725;27;20049;-71
2023/08/17 06:30:37;;;;;;;;;;;33.00;91.70;;;;;;5135725;27;20348;-71
2023/08/17 06:33:04;;;;;;;;;;;32.90;91.60;;;;;;5135479;27;19913;-71
2023/08/17 06:35:30;;;;;;;;;;;33.20;91.90;;;;;;5135312;27;20011;-70
2023/08/17 06:37:57;;;;;;;;;;;33.70;91.50;;;;;;5135921;27;19951;-71
2023/08/17 06:40:24;;;;;;;;;;;34.30;91.00;;;;;;5135111;27;19919;-71
2023/08/17 06:42:50;;;;;;;;;;;35.00;90.70;;;;;;5135432;27;19927;-72
2023/08/17 06:45:18;;;;;;;;;;;35.60;89.60;;;;;;5135589;27;20339;-71
2023/08/17 06:47:48;;;;;;;;;;;36.10;88.30;;;;;;5133565;27;20347;-72
2023/08/17 06:50:14;;;;;;;;;;;37.00;86.40;;;;;;5134979;27;19904;-72
2023/08/17 06:52:40;;;;;;;;;;;37.80;83.80;;;;;;5135055;27;20363;-72
2023/08/17 06:55:06;;;;;;;;;;;38.40;83.40;;;;;;5134998;27;20327;-71
2023/08/17 06:57:32;;;;;;;;;;;40.70;79.50;;;;;;5133422;27;19911;-71
2023/08/17 06:59:58;;;;;;;;;;;41.70;76.20;;;;;;5135324;27;20340;-71
2023/08/17 07:02:24;;;;;;;;;;;42.40;73.00;;;;;;5134768;27;19929;-72
2023/08/17 07:04:49;;;;;;;;;;;42.70;71.60;;;;;;5134678;27;19955;-72
2023/08/17 07:07:15;;;;;;;;;;;43.30;70.00;;;;;;5135300;27;19930;-72
2023/08/17 07:09:41;;;;;;;;;;;43.80;68.50;;;;;;5134992;27;19938;-72
2023/08/17 07:12:07;;;;;;;;;;;44.10;66.00;;;;;;5134471;27;20327;-72
2023/08/17 07:14:33;;;;;;;;;;;44.00;64.70;;;;;;5134700;27;19907;-73
2023/08/17 07:16:59;;;;;;;;;;;44.20;63.00;;;;;;5134944;27;20305;-72
2023/08/17 07:19:25;;;;;;;;;;;43.90;64.90;;;;;;5134851;27;19911;-72
2023/08/17 07:21:51;;;;;;;;;;;44.40;63.30;;;;;;5134421;27;19957;-71
2023/08/17 07:24:17;;;;;;;;;;;43.80;59.80;;;;;;5134643;27;19904;-72
2023/08/17 07:26:43;;;;;;;;;;;43.10;62.00;;;;;;5134980;27;19911;-72
2023/08/17 07:29:09;;;;;;;;;;;42.90;64.80;;;;;;5133150;27;19954;-72
2023/08/17 07:31:37;;;;;;;;;;;42.10;67.50;;;;;;5134733;27;20002;-71
2023/08/17 07:34:03;;;;;;;;;;;41.60;69.20;;;;;;5134486;27;19913;-71
2023/08/17 07:36:29;;;;;;;;;;;40.60;70.80;;;;;;5134186;27;19953;-71
2023/08/17 07:38:55;;;;;;;;;;;40.20;71.60;;;;;;5132680;27;19916;-72
2023/08/17 07:41:21;;;;;;;;;;;39.80;70.90;;;;;;5132710;27;19910;-71
2023/08/17 07:43:47;;;;;;;;;;;39.10;74.30;;;;;;5134355;27;19963;-71
2023/08/17 07:46:12;;;;;;;;;;;37.90;81.10;;;;;;5134492;27;19903;-71
2023/08/17 07:48:38;;;;;;;;;;;37.70;82.60;;;;;;5133948;27;20001;-71
2023/08/17 07:51:04;;;;;;;;;;;37.20;83.80;;;;;;5134117;27;20355;-71
2023/08/17 07:53:30;;;;;;;;;;;36.20;85.40;;;;;;5134337;27;19911;-71
2023/08/17 07:55:56;;;;;;;;;;;36.40;86.30;;;;;;5134235;27;20374;-71
2023/08/17 07:58:21;;;;;;;;;;;36.70;86.80;;;;;;5133982;27;19961;-71
2023/08/17 08:00:47;;;;;;;;;;;37.00;86.30;;;;;;5134029;27;19903;-71
2023/08/17 08:03:14;;;;;;;;;;;37.10;86.40;;;;;;5133154;27;19914;-71
2023/08/17 08:05:40;;;;;;;;;;;36.60;86.50;;;;;;5133679;27;20370;-71
2023/08/17 08:08:06;;;;;;;;;;;35.90;88.10;;;;;;5133734;27;20007;-71
2023/08/17 08:10:32;;;;;;;;;;;36.30;89.40;;;;;;5132440;27;19903;-71
2023/08/17 08:12:58;;;;;;;;;;;36.10;89.20;;;;;;5133833;27;19911;-71
2023/08/17 08:15:23;;;;;;;;;;;36.10;88.80;;;;;;5133758;28;19911;-71
2023/08/17 08:17:49;;;;;;;;;;;36.30;88.20;;;;;;5133659;27;20287;-71
2023/08/17 08:20:15;;;;;;;;;;;36.40;87.50;;;;;;5133442;28;20281;-71
2023/08/17 08:22:41;;;;;;;;;;;36.40;87.50;;;;;;5134133;27;19903;-71
2023/08/17 08:25:07;;;;;;;;;;;36.40;85.90;;;;;;5137416;27;19904;-73
2023/08/17 08:27:33;;;;;;;;;;;36.00;86.10;;;;;;5138233;27;19914;-71
2023/08/17 08:29:58;;;;;;;;;;;35.70;85.50;;;;;;5138018;27;19949;-71
2023/08/17 08:32:25;;;;;;;;;;;35.60;86.10;;;;;;5136371;27;19952;-71
2023/08/17 08:34:51;;;;;;;;;;;35.60;86.70;;;;;;5138392;27;19904;-70
2023/08/17 08:37:16;;;;;;;;;;;35.60;86.30;;;;;;5138865;27;19904;-70
2023/08/17 08:39:51;;;;;;;;;;;35.40;86.50;;;;;;5137655;27;19915;-71
2023/08/17 08:42:17;;;;;;;;;;;35.40;87.20;;;;;;5136276;27;19907;-71
2023/08/17 08:44:43;;;;;;;;;;;35.60;87.30;;;;;;5138061;27;20002;-70
2023/08/17 08:47:09;;;;;;;;;;;35.50;87.60;;;;;;5137490;27;20056;-70
2023/08/17 08:49:38;;;;;;;;;;;35.90;88.10;;;;;;5137645;27;19903;-70
2023/08/17 08:52:07;;;;;;;;;;;36.30;87.80;;;;;;5137003;27;19903;-70
2023/08/17 08:54:34;;;;;;;;;;;35.90;86.90;;;;;;5137212;27;19914;-70
2023/08/17 08:57:03;;;;;;;;;;;36.00;87.90;;;;;;5137704;27;19910;-70
2023/08/17 08:59:29;;;;;;;;;;;35.50;90.30;;;;;;5137476;27;19908;-70
2023/08/17 09:01:58;;;;;;;;;;;35.40;90.70;;;;;;5137549;27;19903;-70
2023/08/17 09:04:25;;;;;;;;;;;35.40;91.00;;;;;;5137232;27;19926;-71
2023/08/17 09:06:51;;;;;;;;;;;35.60;90.60;;;;;;5135723;27;20003;-70
2023/08/17 09:09:18;;;;;;;;;;;35.60;90.80;;;;;;5137567;27;19950;-70
2023/08/17 09:11:44;;;;;;;;;;;35.30;90.80;;;;;;5137032;27;19914;-70
2023/08/17 09:14:10;;;;;;;;;;;35.30;90.60;;;;;;5135509;27;19903;-70
2023/08/17 09:16:35;;;;;;;;;;;35.40;90.40;;;;;;5137278;27;19903;-70
2023/08/17 09:19:01;;;;;;;;;;;35.00;90.60;;;;;;5136932;27;20032;-70
2023/08/17 09:21:31;;;;;;;;;;;34.90;90.60;;;;;;5136861;27;19907;-70
2023/08/17 09:23:56;;;;;;;;;;;34.80;90.50;;;;;;5136657;27;19907;-70
2023/08/17 09:26:23;;;;;;;;;;;34.90;90.10;;;;;;5136628;27;19914;-70
2023/08/17 09:28:49;;;;;;;;;;;35.00;89.40;;;;;;5135282;27;20363;-70
2023/08/17 09:31:15;;;;;;;;;;;35.00;89.00;;;;;;5135198;27;19907;-70
2023/08/17 09:33:41;;;;;;;;;;;34.80;88.90;;;;;;5135260;27;19904;-70
2023/08/17 09:36:12;;;;;;;;;;;34.80;89.20;;;;;;5135813;27;19917;-70
2023/08/17 09:38:38;;;;;;;;;;;34.30;90.30;;;;;;5136337;27;20006;-70
2023/08/17 09:41:05;;;;;;;;;;;34.00;90.70;;;;;;5136977;27;20002;-71
2023/08/17 09:43:33;;;;;;;;;;;34.00;91.10;;;;;;5136362;27;19903;-70
2023/08/17 09:45:59;;;;;;;;;;;34.20;91.10;;;;;;5134986;27;19903;-70
2023/08/17 09:48:26;;;;;;;;;;;34.30;90.70;;;;;;5136805;27;19918;-71
2023/08/17 09:50:52;;;;;;;;;;;34.50;90.40;;;;;;5134686;27;19958;-71
2023/08/17 09:53:18;;;;;;;;;;;34.40;90.00;;;;;;5134831;27;19957;-71
2023/08/17 09:55:47;;;;;;;;;;;34.20;90.30;;;;;;5135089;27;20377;-71
2023/08/17 09:58:16;;;;;;;;;;;34.40;90.10;;;;;;5136308;27;19910;-71
2023/08/17 10:00:46;;;;;;;;;;;34.60;90.10;;;;;;5136417;27;19989;-71
2023/08/17 10:03:14;;;;;;;;;;;34.30;90.30;;;;;;5136087;27;19956;-71
2023/08/17 10:05:40;;;;;;;;;;;34.30;90.20;;;;;;5136782;27;19903;-71
2023/08/17 10:08:07;;;;;;;;;;;34.30;89.40;;;;;;5136342;27;20298;-71
2023/08/17 10:10:34;;;;;;;;;;;34.30;90.30;;;;;;5135960;27;20407;-73
2023/08/17 10:13:06;;;;;;;;;;;34.10;90.50;;;;;;5135766;27;19933;-71
2023/08/17 10:15:38;;;;;;;;;;;33.90;90.50;;;;;;5135847;27;19904;-71
2023/08/17 10:18:12;;;;;;;;;;;33.70;90.70;;;;;;5135939;27;20055;-71
2023/08/17 10:20:41;;;;;;;;;;;33.70;90.80;;;;;;5135491;27;19907;-72
2023/08/17 10:23:22;;;;;;;;;;;33.70;90.90;;;;;;5135516;27;19903;-71
2023/08/17 10:25:48;;;;;;;;;;;33.80;91.10;;;;;;5135770;27;19998;-71
2023/08/17 10:28:14;;;;;;;;;;;33.80;91.00;;;;;;5134072;27;20025;-70
2023/08/17 10:30:41;;;;;;;;;;;33.60;91.20;;;;;;5135969;27;20379;-71
2023/08/17 10:33:07;;;;;;;;;;;33.40;91.50;;;;;;5135781;27;19903;-71
2023/08/17 10:35:33;;;;;;;;;;;33.40;91.70;;;;;;5135874;27;19971;-71
2023/08/17 10:37:59;;;;;;;;;;;33.40;91.90;;;;;;5135426;27;19903;-71
2023/08/17 10:40:26;;;;;;;;;;;33.20;92.00;;;;;;5135141;27;20383;-71
2023/08/17 10:42:56;;;;;;;;;;;33.20;92.10;;;;;;5135844;27;19956;-71
2023/08/17 10:45:21;;;;;;;;;;;33.20;92.10;;;;;;5135518;27;19990;-71
2023/08/17 10:47:48;;;;;;;;;;;33.20;92.30;;;;;;5134027;27;20010;-71
2023/08/17 10:50:24;;;;;;;;;;;33.30;92.20;;;;;;5134968;27;20036;-71
2023/08/17 10:52:50;;;;;;;;;;;33.20;92.40;;;;;;5135362;27;19907;-71
2023/08/17 10:55:18;;;;;;;;;;;33.30;92.40;;;;;;5133930;27;19914;-69
2023/08/17 10:57:44;;;;;;;;;;;33.40;92.10;;;;;;5135362;27;19915;-69
2023/08/17 11:00:13;;;;;;;;;;;33.40;92.10;;;;;;5135494;27;19904;-70
2023/08/17 11:02:39;;;;;;;;;;;33.50;92.00;;;;;;5134937;27;19914;-71
2023/08/17 11:05:07;;;;;;;;;;;33.40;92.50;;;;;;5134968;27;19985;-71
2023/08/17 11:07:42;;;;;;;;;;;33.50;93.00;;;;;;5134707;27;19940;-70
2023/08/17 11:10:28;;;;;;;;;;;33.40;93.80;;;;;;5134608;27;19903;-70
2023/08/17 11:12:59;;;;;;;;;;;33.50;94.30;;;;;;5135010;27;19930;-70
2023/08/17 11:15:26;;;;;;;;;;;33.50;94.70;;;;;;5133366;27;19903;-70
2023/08/17 11:17:52;;;;;;;;;;;33.50;95.10;;;;;;5134671;27;20056;-71
2023/08/17 11:20:18;;;;;;;;;;;33.40;95.50;;;;;;5134620;27;19990;-71
2023/08/17 11:22:45;;;;;;;;;;;33.20;95.20;;;;;;5133001;27;20443;-70
2023/08/17 11:25:11;;;;;;;;;;;33.20;95.40;;;;;;5134704;27;19977;-71
2023/08/17 11:27:37;;;;;;;;;;;33.20;95.40;;;;;;5134218;27;19960;-70
2023/08/17 11:30:03;;;;;;;;;;;33.30;95.70;;;;;;5134374;27;19908;-70
2023/08/17 11:32:29;;;;;;;;;;;33.70;95.50;;;;;;5134383;27;19907;-70
2023/08/17 11:34:55;;;;;;;;;;;33.80;95.40;;;;;;5132801;27;20342;-72
2023/08/17 11:37:21;;;;;;;;;;;33.50;95.30;;;;;;5134252;27;19904;-72
2023/08/17 11:39:47;;;;;;;;;;;33.50;95.30;;;;;;5132699;27;19948;-71
2023/08/17 11:42:13;;;;;;;;;;;33.70;95.30;;;;;;5134481;27;19904;-70
2023/08/17 11:44:40;;;;;;;;;;;33.70;94.70;;;;;;5132693;27;19910;-71
2023/08/17 11:47:06;;;;;;;;;;;33.70;95.20;;;;;;5134559;27;19918;-71
2023/08/17 11:49:32;;;;;;;;;;;33.80;95.20;;;;;;5134315;27;19911;-71
2023/08/17 11:51:58;;;;;;;;;;;33.80;95.00;;;;;;5133822;27;19933;-71
2023/08/17 11:54:24;;;;;;;;;;;33.80;95.30;;;;;;5134392;27;19973;-71
2023/08/17 11:56:50;;;;;;;;;;;33.80;94.30;;;;;;5134097;27;19918;-71
2023/08/17 11:59:18;;;;;;;;;;;33.80;93.80;;;;;;5134405;27;19993;-71
2023/08/17 12:01:44;;;;;;;;;;;33.80;93.80;;;;;;5132806;27;19918;-71
2023/08/17 12:04:10;;;;;;;;;;;33.90;93.70;;;;;;5132688;27;19903;-72
2023/08/17 12:06:42;;;;;;;;;;;33.60;93.50;;;;;;5133854;27;19904;-71
2023/08/17 12:09:08;;;;;;;;;;;33.80;93.50;;;;;;5134200;27;19912;-71
2023/08/17 12:11:34;;;;;;;;;;;33.80;93.60;;;;;;5133900;27;19914;-71
2023/08/17 12:13:59;;;;;;;;;;;33.70;94.20;;;;;;5133740;27;19994;-71
2023/08/17 12:16:25;;;;;;;;;;;33.90;93.80;;;;;;5133813;28;20344;-71
2023/08/17 12:18:54;;;;;;;;;;;33.80;94.50;;;;;;5133823;27;19956;-73
2023/08/17 12:21:23;;;;;;;;;;;33.50;94.20;;;;;;5133776;27;19903;-71
2023/08/17 12:23:48;;;;;;;;;;;33.60;94.40;;;;;;5133646;27;19904;-71
2023/08/17 12:26:22;;;;;;;;;;;33.30;94.80;;;;;;5133728;27;19914;-71
2023/08/17 12:28:49;;;;;;;;;;;33.20;95.70;;;;;;5134122;27;19918;-71
2023/08/17 12:31:20;;;;;;;;;;;33.20;96.60;;;;;;5133759;27;19908;-72
2023/08/17 12:33:46;;;;;;;;;;;33.00;97.40;;;;;;5133676;27;19998;-71
2023/08/17 12:36:12;;;;;;;;;;;33.10;98.20;;;;;;5133576;28;19911;-72
2023/08/17 12:38:41;;;;;;;;;;;33.10;98.70;;;;;;5133276;27;20367;-71
2023/08/17 12:41:07;;;;;;;;;;;33.40;98.80;;;;;;5134131;27;19993;-71
2023/08/17 12:43:33;;;;;;;;;;;33.30;98.80;;;;;;5133649;27;19954;-71
2023/08/17 12:45:59;;;;;;;;;;;33.30;99.70;;;;;;5133608;28;19910;-72
2023/08/17 12:48:25;;;;;;;;;;;33.40;99.60;;;;;;5132182;28;19911;-71
2023/08/17 12:50:50;;;;;;;;;;;33.30;99.50;;;;;;5133606;27;19910;-70
2023/08/17 12:53:16;;;;;;;;;;;33.20;99.40;;;;;;5133879;28;20313;-71
2023/08/17 12:55:42;;;;;;;;;;;33.20;99.40;;;;;;5133476;27;19939;-71
2023/08/17 12:58:09;;;;;;;;;;;33.30;99.60;;;;;;5133928;27;19903;-72
2023/08/17 13:00:35;;;;;;;;;;;33.50;99.80;;;;;;5133402;27;19951;-71
2023/08/17 13:03:01;;;;;;;;;;;33.40;99.90;;;;;;5136149;27;19926;-71
2023/08/17 13:05:26;;;;;;;;;;;33.40;99.80;;;;;;5133445;28;20382;-71
2023/08/17 13:07:53;;;;;;;;;;;33.40;98.80;;;;;;5133866;28;19918;-72
2023/08/17 13:10:19;;;;;;;;;;;33.50;97.90;;;;;;5135336;27;19904;-71
2023/08/17 13:12:47;;;;;;;;;;;33.50;95.70;;;;;;5137210;27;19921;-71
2023/08/17 13:15:13;;;;;;;;;;;33.80;96.40;;;;;;5135728;27;19904;-71
2023/08/17 13:17:38;;;;;;;;;;;33.70;94.40;;;;;;5137095;27;19926;-72
2023/08/17 13:20:06;;;;;;;;;;;33.90;93.80;;;;;;5137350;27;20319;-72
2023/08/17 13:22:32;;;;;;;;;;;33.80;92.90;;;;;;5136661;27;20545;-71
2023/08/17 13:24:57;;;;;;;;;;;33.90;92.70;;;;;;5136814;27;19959;-71
2023/08/17 13:27:23;;;;;;;;;;;34.00;91.80;;;;;;5136820;27;19907;-71
2023/08/17 13:29:49;;;;;;;;;;;34.20;91.30;;;;;;5137232;27;19903;-72
2023/08/17 13:32:15;;;;;;;;;;;34.30;90.70;;;;;;5136979;27;19954;-71
2023/08/17 13:34:40;;;;;;;;;;;34.40;90.50;;;;;;5137337;27;19910;-71
2023/08/17 13:37:06;;;;;;;;;;;34.50;90.50;;;;;;5136394;27;19903;-72
2023/08/17 13:39:32;;;;;;;;;;;34.60;91.30;;;;;;5136358;27;19962;-71
2023/08/17 13:41:58;;;;;;;;;;;34.40;91.00;;;;;;5137061;27;19993;-71
2023/08/17 13:44:24;;;;;;;;;;;34.30;90.90;;;;;;5136327;27;19977;-71
2023/08/17 13:46:50;;;;;;;;;;;34.50;90.20;;;;;;5135122;27;19915;-71
2023/08/17 13:49:16;;;;;;;;;;;34.40;89.40;;;;;;5136410;27;19916;-71
2023/08/17 13:51:41;;;;;;;;;;;33.80;89.50;;;;;;5136388;27;20283;-72
2023/08/17 13:54:07;;;;;;;;;;;34.10;89.50;;;;;;5136770;27;19903;-71
2023/08/17 13:56:33;;;;;;;;;;;34.00;89.00;;;;;;5136218;27;19998;-72
2023/08/17 13:58:59;;;;;;;;;;;33.90;88.00;;;;;;5136195;27;19903;-71
2023/08/17 14:01:26;;;;;;;;;;;33.70;88.30;;;;;;5134759;27;19965;-71
2023/08/17 14:03:52;;;;;;;;;;;33.70;88.30;;;;;;5136424;27;19960;-72
2023/08/17 14:06:20;;;;;;;;;;;34.00;90.20;;;;;;5135933;27;19903;-72
2023/08/17 14:08:46;;;;;;;;;;;34.30;90.60;;;;;;5136366;27;19911;-71
2023/08/17 14:11:12;;;;;;;;;;;34.30;88.80;;;;;;5134392;27;19910;-71